createdAt,value
2022-09-10T00:00:11.904Z,100138.63
2022-09-10T00:02:43.321Z,100121.09
2022-09-10T00:05:18.733Z,100115.41
2022-09-10T00:07:49.372Z,100121.75
2022-09-10T00:10:20.606Z,100115.41
2022-09-10T00:12:56.740Z,100117.56
2022-09-10T00:15:36.093Z,100081.00
2022-09-10T00:18:09.417Z,100117.41
2022-09-10T00:20:49.121Z,100128.94
2022-09-10T00:26:08.959Z,100105.50
2022-09-10T00:28:44.807Z,100089.38
2022-09-10T00:31:29.565Z,100115.63
2022-09-10T00:34:14.750Z,100118.63
2022-09-10T00:40:08.737Z,100122.72
2022-09-10T00:42:42.240Z,100115.19
2022-09-10T00:45:31.959Z,100122.63
2022-09-10T00:48:35.573Z,100117.88
2022-09-10T00:54:12.063Z,100116.50
2022-09-10T00:56:43.846Z,100119.84
2022-09-10T01:02:07.451Z,100119.72
2022-09-10T01:04:48.775Z,100110.25
2022-09-10T01:07:17.242Z,100079.34
2022-09-10T01:09:50.775Z,100115.19
2022-09-10T01:13:01.651Z,100105.22
2022-09-10T01:15:59.217Z,100111.00
2022-09-10T01:19:43.931Z,100114.91
2022-09-10T01:22:36.212Z,100111.09
2022-09-10T01:25:48.302Z,100115.94
2022-09-10T01:28:47.460Z,100113.13
2022-09-10T01:31:55.455Z,100121.31
2022-09-10T01:34:49.734Z,100127.47
2022-09-10T01:37:27.786Z,100093.41
2022-09-10T01:40:02.262Z,100133.06
2022-09-10T01:42:33.126Z,100127.13
2022-09-10T01:45:19.155Z,100139.59
2022-09-10T01:48:10.022Z,100127.94
2022-09-10T01:51:09.043Z,100119.53
2022-09-10T01:57:21.703Z,100118.91
2022-09-10T02:00:29.222Z,100119.72
2022-09-10T02:03:03.291Z,100126.06
2022-09-10T02:05:51.023Z,100133.16
2022-09-10T02:08:25.127Z,100134.53
2022-09-10T02:11:08.690Z,100118.22
2022-09-10T02:13:39.333Z,100121.81
2022-09-10T02:16:20.983Z,100103.88
2022-09-10T02:18:56.566Z,100116.53
2022-09-10T02:21:35.809Z,100103.41
2022-09-10T02:24:24.104Z,100110.16
2022-09-10T02:26:54.775Z,100107.75
2022-09-10T02:29:35.641Z,100110.72
2022-09-10T02:32:10.933Z,100126.28
2022-09-10T02:34:53.663Z,100100.03
2022-09-10T02:37:33.661Z,100118.09
2022-09-10T02:40:10.945Z,100088.31
2022-09-10T02:43:01.146Z,100110.94
2022-09-10T02:45:32.983Z,100116.44
2022-09-10T02:48:04.734Z,100109.81
2022-09-10T02:50:38.919Z,100111.06
2022-09-10T02:53:09.821Z,100116.00
2022-09-10T02:55:49.252Z,100113.31
2022-09-10T02:58:27.486Z,100109.34
2022-09-10T03:01:24.333Z,100103.72
2022-09-10T03:04:11.859Z,100101.84
2022-09-10T03:06:53.823Z,100101.19
2022-09-10T03:09:25.064Z,100082.69
2022-09-10T03:11:56.721Z,100105.66
2022-09-10T03:14:26.967Z,100101.06
2022-09-10T03:17:19.847Z,100102.28
2022-09-10T03:19:49.319Z,100102.94
2022-09-10T03:22:27.881Z,100105.44
2022-09-10T03:25:03.261Z,100098.19
2022-09-10T03:27:44.663Z,100110.66
2022-09-10T03:30:17.126Z,100111.50
2022-09-10T03:32:50.768Z,100105.53
2022-09-10T03:35:21.888Z,100112.16
2022-09-10T03:37:56.187Z,100110.66
2022-09-10T03:40:36.544Z,100099.44
2022-09-10T03:43:08.014Z,100111.06
2022-09-10T03:45:39.335Z,100103.38
2022-09-10T03:48:06.928Z,100034.44
2022-09-10T03:50:43.503Z,100092.56
2022-09-10T03:53:22.008Z,100105.31
2022-09-10T03:55:51.492Z,100106.44
2022-09-10T03:58:25.287Z,100108.22
2022-09-10T04:01:05.126Z,100119.78
2022-09-10T04:03:41.807Z,100114.06
2022-09-10T04:06:37.920Z,100110.28
2022-09-10T04:09:10.288Z,100111.13
2022-09-10T04:11:42.494Z,100087.84
2022-09-10T04:14:14.423Z,100108.31
2022-09-10T04:16:46.359Z,100119.50
2022-09-10T04:19:14.086Z,100106.47
2022-09-10T04:21:45.223Z,100105.75
2022-09-10T04:24:21.851Z,100113.38
2022-09-10T04:26:52.679Z,100070.59
2022-09-10T04:29:27.063Z,100106.66
2022-09-10T04:32:00.109Z,100097.91
2022-09-10T04:34:33.886Z,100099.66
2022-09-10T04:37:01.613Z,100109.38
2022-09-10T04:39:28.768Z,100119.81
2022-09-10T04:41:58.441Z,100064.81
2022-09-10T04:44:27.371Z,100125.50
2022-09-10T04:46:55.907Z,100111.97
2022-09-10T04:49:38.061Z,100090.41
2022-09-10T04:52:23.214Z,100125.50
2022-09-10T04:55:01.279Z,100115.28
2022-09-10T04:57:29.785Z,100129.13
2022-09-10T05:00:11.321Z,100126.50
2022-09-10T05:02:49.742Z,100119.22
2022-09-10T05:05:17.850Z,100121.75
2022-09-10T05:07:46.584Z,100117.56
2022-09-10T05:10:18.287Z,100121.75
2022-09-10T05:12:51.343Z,100128.72
2022-09-10T05:15:30.199Z,100120.91
2022-09-10T05:18:01.293Z,100115.78
2022-09-10T05:20:34.741Z,100126.78
2022-09-10T05:23:10.608Z,100126.69
2022-09-10T05:25:37.966Z,100132.19
2022-09-10T05:28:07.386Z,100123.50
2022-09-10T05:30:41.703Z,100126.78
2022-09-10T05:36:16.741Z,100133.47
2022-09-10T05:42:40.981Z,100128.94
2022-09-10T05:46:06.334Z,100142.53
2022-09-10T05:48:43.035Z,100141.47
2022-09-10T05:58:14.124Z,100141.00
2022-09-10T06:01:39.443Z,100113.66
2022-09-10T06:04:39.063Z,100147.16
2022-09-10T06:07:31.812Z,100146.16
2022-09-10T06:14:00.864Z,100155.81
2022-09-10T06:24:31.183Z,100162.63
2022-09-10T06:27:43.281Z,100162.41
2022-09-10T06:31:10.282Z,100166.97
2022-09-10T06:34:38.067Z,100166.59
2022-09-10T06:40:09.843Z,100178.59
2022-09-10T06:43:15.311Z,100169.47
2022-09-10T06:46:24.843Z,100176.69
2022-09-10T06:49:15.192Z,100185.56
2022-09-10T06:51:53.955Z,100181.63
2022-09-10T06:54:51.842Z,100157.44
2022-09-10T06:57:19.083Z,100154.53
2022-09-10T07:00:13.264Z,100184.69
2022-09-10T07:08:26.181Z,100197.16
2022-09-10T07:10:59.701Z,100172.06
2022-09-10T07:13:36.123Z,100188.72
2022-09-10T07:16:27.146Z,100189.69
2022-09-10T07:19:04.641Z,100188.41
2022-09-10T07:22:01.352Z,100188.19
2022-09-10T07:24:30.071Z,100178.06
2022-09-10T07:27:06.108Z,100184.44
2022-09-10T07:29:39.231Z,100197.53
2022-09-10T07:32:11.634Z,100194.38
2022-09-10T07:34:40.511Z,100183.53
2022-09-10T07:37:10.621Z,100159.88
2022-09-10T07:45:17.280Z,100212.94
2022-09-10T07:47:48.563Z,100205.41
2022-09-10T07:50:16.673Z,100207.59
2022-09-10T07:52:44.262Z,100208.19
2022-09-10T07:55:12.154Z,100212.66
2022-09-10T07:57:40.912Z,100166.63
2022-09-10T08:00:15.302Z,100206.94
2022-09-10T08:02:43.751Z,100219.91
2022-09-10T08:05:12.111Z,100215.50
2022-09-10T08:07:40.621Z,100219.81
2022-09-10T08:10:10.237Z,100193.84
2022-09-10T08:12:40.005Z,100227.44
2022-09-10T08:15:10.981Z,100222.38
2022-09-10T08:17:38.683Z,100223.94
2022-09-10T08:20:08.587Z,100219.63
2022-09-10T08:22:36.273Z,100217.78
2022-09-10T08:25:03.868Z,100198.94
2022-09-10T08:27:34.751Z,100230.19
2022-09-10T08:30:01.830Z,100233.53
2022-09-10T08:32:29.140Z,100210.50
2022-09-10T08:34:56.399Z,100243.13
2022-09-10T08:37:23.546Z,100241.41
2022-09-10T08:39:50.770Z,100246.22
2022-09-10T08:42:22.794Z,100246.28
2022-09-10T08:44:55.032Z,100241.00
2022-09-10T08:47:31.307Z,100249.34
2022-09-10T08:50:11.921Z,100229.56
2022-09-10T08:52:44.772Z,100263.97
2022-09-10T08:55:17.824Z,100221.78
2022-09-10T08:57:50.113Z,100252.97
2022-09-10T09:00:34.792Z,100246.34
2022-09-10T09:03:06.312Z,100236.81
2022-09-10T09:05:58.911Z,100240.09
2022-09-10T09:08:35.113Z,100247.66
2022-09-10T09:11:21.003Z,100248.22
2022-09-10T09:14:08.947Z,100242.69
2022-09-10T09:17:06.247Z,100255.28
2022-09-10T09:19:35.071Z,100227.97
2022-09-10T09:22:40.104Z,100245.88
2022-09-10T09:25:30.587Z,100251.63
2022-09-10T09:27:58.602Z,100226.47
2022-09-10T09:30:35.886Z,100260.19
2022-09-10T09:33:17.284Z,100214.91
2022-09-10T09:36:02.165Z,100251.38
2022-09-10T09:38:41.672Z,100257.81
2022-09-10T09:41:24.711Z,100228.22
2022-09-10T09:44:04.722Z,100264.50
2022-09-10T09:46:31.825Z,100255.06
2022-09-10T09:49:01.911Z,100244.06
2022-09-10T09:51:35.913Z,100228.22
2022-09-10T09:57:01.833Z,100261.84
2022-09-10T09:59:31.707Z,100256.22
2022-09-10T10:02:24.259Z,100258.25
2022-09-10T10:05:07.471Z,100257.66
2022-09-10T10:07:39.192Z,100254.66
2022-09-10T10:10:08.442Z,100255.06
2022-09-10T10:12:43.153Z,100256.47
2022-09-10T10:15:38.217Z,100255.66
2022-09-10T10:18:23.599Z,100250.97
2022-09-10T10:21:13.993Z,100251.81
2022-09-10T10:23:43.241Z,100246.00
2022-09-10T10:26:24.281Z,100193.16
2022-09-10T10:28:56.202Z,100229.56
2022-09-10T10:31:23.935Z,100237.88
2022-09-10T10:34:22.483Z,100241.44
2022-09-10T10:37:15.141Z,100208.91
2022-09-10T10:39:48.716Z,100231.06
2022-09-10T10:42:56.187Z,100230.81
2022-09-10T10:45:52.142Z,100212.94
2022-09-10T10:48:35.363Z,100228.78
2022-09-10T10:51:09.842Z,100200.88
2022-09-10T10:53:58.811Z,100227.25
2022-09-10T10:56:36.443Z,100229.59
2022-09-10T10:59:30.307Z,100226.06
2022-09-10T11:02:25.517Z,100228.56
2022-09-10T11:04:55.522Z,100231.06
2022-09-10T11:07:39.595Z,100234.44
2022-09-10T11:10:19.990Z,100203.38
2022-09-10T11:12:51.837Z,100223.69
2022-09-10T11:15:29.382Z,100193.34
2022-09-10T11:18:07.476Z,100221.88
2022-09-10T11:20:50.354Z,100224.88
2022-09-10T11:23:46.428Z,100238.25
2022-09-10T11:26:27.787Z,100230.75
2022-09-10T11:29:21.269Z,100231.19
2022-09-10T11:32:26.200Z,100216.56
2022-09-10T11:35:04.434Z,100231.81
2022-09-10T11:37:40.791Z,100230.41
2022-09-10T11:40:18.481Z,100189.03
2022-09-10T11:42:53.440Z,100211.97
2022-09-10T11:45:32.274Z,100206.38
2022-09-10T11:48:29.451Z,100231.59
2022-09-10T11:51:07.586Z,100226.34
2022-09-10T11:53:37.402Z,100208.72
2022-09-10T11:56:28.906Z,100231.13
2022-09-10T11:59:22.226Z,100233.97
2022-09-10T12:02:30.993Z,100225.84
2022-09-10T12:05:08.325Z,100222.00
2022-09-10T12:08:11.425Z,100221.56
2022-09-10T12:11:17.164Z,100214.41
2022-09-10T12:13:46.246Z,100213.38
2022-09-10T12:16:35.243Z,100203.84
2022-09-10T12:19:08.753Z,100232.31
2022-09-10T12:21:41.929Z,100227.59
2022-09-10T12:24:32.617Z,100233.84
2022-09-10T12:27:05.607Z,100225.44
2022-09-10T12:29:38.203Z,100226.91
2022-09-10T12:32:20.284Z,100228.81
2022-09-10T12:34:51.683Z,100191.78
2022-09-10T12:37:28.915Z,100215.91
2022-09-10T12:40:25.948Z,100213.34
2022-09-10T12:42:59.162Z,100215.75
2022-09-10T12:46:16.819Z,100220.81
2022-09-10T12:48:59.153Z,100228.44
2022-09-10T12:51:41.460Z,100235.81
2022-09-10T12:54:33.244Z,100215.13
2022-09-10T12:57:04.246Z,100259.75
2022-09-10T13:00:02.016Z,100251.38
2022-09-10T13:02:50.083Z,100247.53
2022-09-10T13:05:30.831Z,100239.47
2022-09-10T13:08:12.949Z,100228.22
2022-09-10T13:10:43.051Z,100236.13
2022-09-10T13:13:39.097Z,100236.59
2022-09-10T13:16:14.806Z,100232.88
2022-09-10T13:18:42.640Z,100229.88
2022-09-10T13:21:32.422Z,100233.13
2022-09-10T13:24:04.247Z,100220.19
2022-09-10T13:26:40.253Z,100226.75
2022-09-10T13:29:39.006Z,100218.31
2022-09-10T13:32:19.129Z,100219.38
2022-09-10T13:35:01.304Z,100227.16
2022-09-10T13:37:43.702Z,100230.88
2022-09-10T13:40:33.402Z,100218.91
2022-09-10T13:43:20.046Z,100224.81
2022-09-10T13:46:00.048Z,100227.97
2022-09-10T13:48:42.021Z,100219.56
2022-09-10T13:51:09.486Z,100213.31
2022-09-10T13:53:41.515Z,100225.59
2022-09-10T13:56:19.941Z,100231.72
2022-09-10T13:58:53.927Z,100224.06
2022-09-10T14:01:21.177Z,100219.75
2022-09-10T14:03:48.330Z,100222.91
2022-09-10T14:06:25.422Z,100187.50
2022-09-10T14:09:02.180Z,100217.16
2022-09-10T14:11:34.120Z,100215.13
2022-09-10T14:14:13.091Z,100210.31
2022-09-10T14:16:51.650Z,100207.28
2022-09-10T14:19:37.932Z,100210.41
2022-09-10T14:22:09.819Z,100184.50
2022-09-10T14:24:40.309Z,100200.50
2022-09-10T14:27:19.390Z,100150.66
2022-09-10T14:29:47.089Z,100182.09
2022-09-10T14:32:28.895Z,100200.72
2022-09-10T14:34:56.509Z,100185.06
2022-09-10T14:37:39.180Z,100190.44
2022-09-10T14:40:17.994Z,100161.19
2022-09-10T14:42:46.909Z,100191.25
2022-09-10T14:45:40.070Z,100188.94
2022-09-10T14:48:37.312Z,100192.41
2022-09-10T14:51:24.974Z,100196.22
2022-09-10T14:53:52.970Z,100192.91
2022-09-10T14:56:33.007Z,100158.91
2022-09-10T14:59:12.196Z,100200.16
2022-09-10T15:01:42.320Z,100207.50
2022-09-10T15:04:15.840Z,100194.28
2022-09-10T15:06:46.220Z,100199.25
2022-09-10T15:09:14.070Z,100118.78
2022-09-10T15:11:52.504Z,100189.91
2022-09-10T15:14:19.784Z,100139.34
2022-09-10T15:16:49.149Z,100200.97
2022-09-10T15:19:16.831Z,100205.69
2022-09-10T15:21:44.219Z,100209.75
2022-09-10T15:24:15.351Z,100202.81
2022-09-10T15:26:42.990Z,100210.84
2022-09-10T15:29:10.814Z,100201.88
2022-09-10T15:31:39.061Z,100199.09
2022-09-10T15:34:08.069Z,100177.31
2022-09-10T15:36:37.409Z,100184.44
2022-09-10T15:39:06.174Z,100216.41
2022-09-10T15:41:33.341Z,100225.59
2022-09-10T15:44:03.290Z,100169.28
2022-09-10T15:46:30.471Z,100220.47
2022-09-10T15:49:00.261Z,100179.91
2022-09-10T15:51:27.327Z,100220.84
2022-09-10T15:53:55.171Z,100199.47
2022-09-10T15:56:27.191Z,100211.63
2022-09-10T15:58:57.181Z,100215.81
2022-09-10T16:01:28.407Z,100213.78
2022-09-10T16:03:58.138Z,100192.09
2022-09-10T16:06:28.294Z,100215.56
2022-09-10T16:08:57.584Z,100213.78
2022-09-10T16:11:25.728Z,100208.09
2022-09-10T16:13:53.180Z,100220.50
2022-09-10T16:16:22.813Z,100206.25
2022-09-10T16:18:53.808Z,100195.81
2022-09-10T16:21:23.551Z,100211.13
2022-09-10T16:23:52.126Z,100219.00
2022-09-10T16:26:24.094Z,100197.91
2022-09-10T16:28:52.989Z,100222.72
2022-09-10T16:31:28.438Z,100195.09
2022-09-10T16:33:58.934Z,100219.63
2022-09-10T16:36:27.422Z,100212.66
2022-09-10T16:38:56.528Z,100190.13
2022-09-10T16:41:24.975Z,100204.47
2022-09-10T16:43:52.372Z,100216.69
2022-09-10T16:46:19.639Z,100207.50
2022-09-10T16:48:47.367Z,100207.97
2022-09-10T16:51:17.209Z,100213.28
2022-09-10T16:53:47.241Z,100220.44
2022-09-10T16:56:16.439Z,100214.00
2022-09-10T16:58:47.769Z,100216.22
2022-09-10T17:01:16.007Z,100224.16
2022-09-10T17:03:45.801Z,100214.97
2022-09-10T17:06:21.982Z,100220.97
2022-09-10T17:08:50.142Z,100219.63
